sensor_id;sensor_type;location;lat;lon;timestamp;P1;durP1;ratioP1;P2;durP2;ratioP2
57635;SDS011;43465;50.728;4.160;2023-09-19T00:02:17;12.60;;;2.53;;
57635;SDS011;43465;50.728;4.160;2023-09-19T00:04:43;17.48;;;3.30;;
57635;SDS011;43465;50.728;4.160;2023-09-19T00:07:09;8.38;;;2.20;;
57635;SDS011;43465;50.728;4.160;2023-09-19T00:09:35;11.45;;;3.20;;
57635;SDS011;43465;50.728;4.160;2023-09-19T00:12:04;11.00;;;2.72;;
57635;SDS011;43465;50.728;4.160;2023-09-19T00:14:31;16.20;;;3.55;;
57635;SDS011;43465;50.728;4.160;2023-09-19T00:17:00;11.75;;;2.53;;
57635;SDS011;43465;50.728;4.160;2023-09-19T00:19:32;13.32;;;2.50;;
57635;SDS011;43465;50.728;4.160;2023-09-19T00:21:58;13.90;;;2.88;;
57635;SDS011;43465;50.728;4.160;2023-09-19T00:24:23;14.10;;;2.85;;
57635;SDS011;43465;50.728;4.160;2023-09-19T00:26:49;11.75;;;2.72;;
57635;SDS011;43465;50.728;4.160;2023-09-19T00:29:15;19.17;;;3.20;;
57635;SDS011;43465;50.728;4.160;2023-09-19T00:31:44;11.80;;;3.05;;
57635;SDS011;43465;50.728;4.160;2023-09-19T00:34:10;13.18;;;2.92;;
57635;SDS011;43465;50.728;4.160;2023-09-19T00:36:36;17.02;;;3.03;;
57635;SDS011;43465;50.728;4.160;2023-09-19T00:39:04;13.80;;;2.63;;
57635;SDS011;43465;50.728;4.160;2023-09-19T00:41:31;13.75;;;3.10;;
57635;SDS011;43465;50.728;4.160;2023-09-19T00:44:01;15.43;;;3.20;;
57635;SDS011;43465;50.728;4.160;2023-09-19T00:46:28;15.35;;;2.90;;
57635;SDS011;43465;50.728;4.160;2023-09-19T00:48:55;11.57;;;2.50;;
57635;SDS011;43465;50.728;4.160;2023-09-19T00:51:22;12.05;;;2.50;;
57635;SDS011;43465;50.728;4.160;2023-09-19T00:53:50;14.35;;;3.03;;
57635;SDS011;43465;50.728;4.160;2023-09-19T00:56:17;9.32;;;2.30;;
57635;SDS011;43465;50.728;4.160;2023-09-19T00:58:44;22.67;;;3.42;;
57635;SDS011;43465;50.728;4.160;2023-09-19T01:01:11;10.65;;;2.60;;
57635;SDS011;43465;50.728;4.160;2023-09-19T01:03:40;16.00;;;3.45;;
57635;SDS011;43465;50.728;4.160;2023-09-19T01:06:07;19.90;;;3.33;;
57635;SDS011;43465;50.728;4.160;2023-09-19T01:08:33;12.15;;;2.60;;
57635;SDS011;43465;50.728;4.160;2023-09-19T01:11:11;11.52;;;2.60;;
57635;SDS011;43465;50.728;4.160;2023-09-19T01:16:19;14.07;;;2.85;;
57635;SDS011;43465;50.728;4.160;2023-09-19T01:22:14;13.95;;;3.25;;
57635;SDS011;43465;50.728;4.160;2023-09-19T01:30:31;12.27;;;3.08;;
57635;SDS011;43465;50.728;4.160;2023-09-19T01:33:01;15.77;;;3.17;;
57635;SDS011;43465;50.728;4.160;2023-09-19T01:35:28;21.60;;;3.88;;
57635;SDS011;43465;50.728;4.160;2023-09-19T01:37:54;19.25;;;3.47;;
57635;SDS011;43465;50.728;4.160;2023-09-19T01:40:20;16.38;;;3.58;;
57635;SDS011;43465;50.728;4.160;2023-09-19T01:46:02;17.33;;;3.15;;
57635;SDS011;43465;50.728;4.160;2023-09-19T01:51:22;13.98;;;3.10;;
57635;SDS011;43465;50.728;4.160;2023-09-19T01:54:03;16.77;;;3.47;;
57635;SDS011;43465;50.728;4.160;2023-09-19T01:56:42;12.63;;;2.58;;
57635;SDS011;43465;50.728;4.160;2023-09-19T01:59:16;12.35;;;2.97;;
57635;SDS011;43465;50.728;4.160;2023-09-19T02:01:48;14.13;;;2.63;;
57635;SDS011;43465;50.728;4.160;2023-09-19T02:04:17;14.80;;;3.58;;
57635;SDS011;43465;50.728;4.160;2023-09-19T02:06:42;16.05;;;2.50;;
57635;SDS011;43465;50.728;4.160;2023-09-19T02:09:08;16.42;;;3.03;;
57635;SDS011;43465;50.728;4.160;2023-09-19T02:11:34;11.57;;;2.85;;
57635;SDS011;43465;50.728;4.160;2023-09-19T02:14:00;15.70;;;3.22;;
57635;SDS011;43465;50.728;4.160;2023-09-19T02:16:26;14.48;;;3.33;;
57635;SDS011;43465;50.728;4.160;2023-09-19T02:18:53;15.45;;;3.60;;
57635;SDS011;43465;50.728;4.160;2023-09-19T02:21:19;13.55;;;3.67;;
57635;SDS011;43465;50.728;4.160;2023-09-19T02:23:46;16.83;;;3.38;;
57635;SDS011;43465;50.728;4.160;2023-09-19T02:26:12;13.98;;;3.33;;
57635;SDS011;43465;50.728;4.160;2023-09-19T02:28:39;14.55;;;3.50;;
57635;SDS011;43465;50.728;4.160;2023-09-19T02:31:04;18.85;;;3.80;;
57635;SDS011;43465;50.728;4.160;2023-09-19T02:33:30;12.65;;;3.40;;
57635;SDS011;43465;50.728;4.160;2023-09-19T02:36:00;25.42;;;3.90;;
57635;SDS011;43465;50.728;4.160;2023-09-19T02:38:25;13.80;;;2.97;;
57635;SDS011;43465;50.728;4.160;2023-09-19T02:40:52;12.90;;;3.47;;
57635;SDS011;43465;50.728;4.160;2023-09-19T02:43:18;23.73;;;4.25;;
57635;SDS011;43465;50.728;4.160;2023-09-19T02:45:47;12.90;;;2.63;;
57635;SDS011;43465;50.728;4.160;2023-09-19T02:48:15;11.65;;;2.58;;
57635;SDS011;43465;50.728;4.160;2023-09-19T02:50:41;14.82;;;3.10;;
57635;SDS011;43465;50.728;4.160;2023-09-19T02:53:08;17.90;;;3.40;;
57635;SDS011;43465;50.728;4.160;2023-09-19T02:55:35;12.35;;;3.05;;
57635;SDS011;43465;50.728;4.160;2023-09-19T02:58:03;12.15;;;2.88;;
57635;SDS011;43465;50.728;4.160;2023-09-19T03:00:30;18.35;;;2.90;;
57635;SDS011;43465;50.728;4.160;2023-09-19T03:02:56;17.08;;;3.33;;
57635;SDS011;43465;50.728;4.160;2023-09-19T03:05:22;14.05;;;3.05;;
57635;SDS011;43465;50.728;4.160;2023-09-19T03:07:48;16.15;;;3.28;;
57635;SDS011;43465;50.728;4.160;2023-09-19T03:10:18;19.70;;;3.70;;
57635;SDS011;43465;50.728;4.160;2023-09-19T03:12:45;15.48;;;3.22;;
57635;SDS011;43465;50.728;4.160;2023-09-19T03:15:11;15.05;;;3.60;;
57635;SDS011;43465;50.728;4.160;2023-09-19T03:17:37;14.93;;;3.33;;
57635;SDS011;43465;50.728;4.160;2023-09-19T03:20:07;12.32;;;3.38;;
57635;SDS011;43465;50.728;4.160;2023-09-19T03:22:34;17.88;;;3.47;;
57635;SDS011;43465;50.728;4.160;2023-09-19T03:25:00;19.50;;;3.53;;
57635;SDS011;43465;50.728;4.160;2023-09-19T03:27:25;18.40;;;3.67;;
57635;SDS011;43465;50.728;4.160;2023-09-19T03:29:52;11.88;;;2.65;;
57635;SDS011;43465;50.728;4.160;2023-09-19T03:32:18;19.30;;;3.55;;
57635;SDS011;43465;50.728;4.160;2023-09-19T03:34:44;12.85;;;3.03;;
57635;SDS011;43465;50.728;4.160;2023-09-19T03:37:10;13.23;;;3.00;;
57635;SDS011;43465;50.728;4.160;2023-09-19T03:39:36;13.20;;;3.17;;
57635;SDS011;43465;50.728;4.160;2023-09-19T03:42:02;12.55;;;2.95;;
57635;SDS011;43465;50.728;4.160;2023-09-19T03:44:29;12.68;;;3.08;;
57635;SDS011;43465;50.728;4.160;2023-09-19T03:46:55;15.13;;;3.22;;
57635;SDS011;43465;50.728;4.160;2023-09-19T03:49:22;17.07;;;3.50;;
57635;SDS011;43465;50.728;4.160;2023-09-19T03:51:47;16.67;;;2.70;;
57635;SDS011;43465;50.728;4.160;2023-09-19T03:54:13;15.60;;;2.83;;
57635;SDS011;43465;50.728;4.160;2023-09-19T03:56:39;14.23;;;2.95;;
57635;SDS011;43465;50.728;4.160;2023-09-19T03:59:05;16.55;;;3.13;;
57635;SDS011;43465;50.728;4.160;2023-09-19T04:01:31;17.60;;;2.78;;
57635;SDS011;43465;50.728;4.160;2023-09-19T04:03:58;15.35;;;3.00;;
57635;SDS011;43465;50.728;4.160;2023-09-19T04:06:32;13.77;;;2.75;;
57635;SDS011;43465;50.728;4.160;2023-09-19T04:08:59;13.05;;;2.95;;
57635;SDS011;43465;50.728;4.160;2023-09-19T04:11:25;13.63;;;2.80;;
57635;SDS011;43465;50.728;4.160;2023-09-19T04:13:51;15.45;;;2.58;;
57635;SDS011;43465;50.728;4.160;2023-09-19T04:16:17;12.45;;;2.95;;
57635;SDS011;43465;50.728;4.160;2023-09-19T04:18:42;17.85;;;3.22;;
57635;SDS011;43465;50.728;4.160;2023-09-19T04:21:08;30.23;;;3.67;;
57635;SDS011;43465;50.728;4.160;2023-09-19T04:23:34;20.05;;;3.30;;
57635;SDS011;43465;50.728;4.160;2023-09-19T04:26:00;21.13;;;3.47;;
57635;SDS011;43465;50.728;4.160;2023-09-19T04:28:25;33.35;;;3.65;;
57635;SDS011;43465;50.728;4.160;2023-09-19T04:30:52;20.45;;;3.80;;
57635;SDS011;43465;50.728;4.160;2023-09-19T04:33:18;22.38;;;3.95;;
57635;SDS011;43465;50.728;4.160;2023-09-19T04:35:44;20.20;;;2.90;;
57635;SDS011;43465;50.728;4.160;2023-09-19T04:38:10;22.50;;;4.03;;
57635;SDS011;43465;50.728;4.160;2023-09-19T04:40:36;24.25;;;3.53;;
57635;SDS011;43465;50.728;4.160;2023-09-19T04:43:04;24.60;;;3.63;;
57635;SDS011;43465;50.728;4.160;2023-09-19T04:45:31;20.48;;;3.60;;
57635;SDS011;43465;50.728;4.160;2023-09-19T04:47:56;15.68;;;2.83;;
57635;SDS011;43465;50.728;4.160;2023-09-19T04:50:22;16.35;;;3.65;;
57635;SDS011;43465;50.728;4.160;2023-09-19T04:52:49;21.35;;;3.60;;
57635;SDS011;43465;50.728;4.160;2023-09-19T04:55:16;18.08;;;3.08;;
57635;SDS011;43465;50.728;4.160;2023-09-19T04:57:49;15.25;;;3.40;;
57635;SDS011;43465;50.728;4.160;2023-09-19T05:00:19;22.00;;;3.85;;
57635;SDS011;43465;50.728;4.160;2023-09-19T05:02:48;22.93;;;3.70;;
57635;SDS011;43465;50.728;4.160;2023-09-19T05:05:16;22.13;;;3.30;;
57635;SDS011;43465;50.728;4.160;2023-09-19T05:07:42;18.30;;;2.92;;
57635;SDS011;43465;50.728;4.160;2023-09-19T05:10:08;15.90;;;2.97;;
57635;SDS011;43465;50.728;4.160;2023-09-19T05:12:35;19.05;;;3.50;;
57635;SDS011;43465;50.728;4.160;2023-09-19T05:15:04;19.42;;;2.75;;
57635;SDS011;43465;50.728;4.160;2023-09-19T05:17:34;20.42;;;3.45;;
57635;SDS011;43465;50.728;4.160;2023-09-19T05:20:00;24.52;;;3.85;;
57635;SDS011;43465;50.728;4.160;2023-09-19T05:22:42;29.17;;;4.40;;
57635;SDS011;43465;50.728;4.160;2023-09-19T05:25:08;26.52;;;3.85;;
57635;SDS011;43465;50.728;4.160;2023-09-19T05:27:35;33.88;;;3.88;;
57635;SDS011;43465;50.728;4.160;2023-09-19T05:30:01;35.35;;;4.32;;
57635;SDS011;43465;50.728;4.160;2023-09-19T05:32:26;27.45;;;4.10;;
57635;SDS011;43465;50.728;4.160;2023-09-19T05:34:52;27.13;;;3.45;;
57635;SDS011;43465;50.728;4.160;2023-09-19T05:37:18;30.67;;;4.65;;
57635;SDS011;43465;50.728;4.160;2023-09-19T05:39:44;35.50;;;4.10;;
57635;SDS011;43465;50.728;4.160;2023-09-19T05:42:10;26.05;;;3.95;;
57635;SDS011;43465;50.728;4.160;2023-09-19T05:44:36;19.38;;;2.92;;
57635;SDS011;43465;50.728;4.160;2023-09-19T05:47:02;18.17;;;3.28;;
57635;SDS011;43465;50.728;4.160;2023-09-19T05:49:28;13.80;;;3.45;;
57635;SDS011;43465;50.728;4.160;2023-09-19T05:51:54;11.70;;;3.05;;
57635;SDS011;43465;50.728;4.160;2023-09-19T05:54:21;15.95;;;2.75;;
57635;SDS011;43465;50.728;4.160;2023-09-19T05:56:47;11.40;;;2.70;;
57635;SDS011;43465;50.728;4.160;2023-09-19T05:59:14;17.88;;;3.00;;
57635;SDS011;43465;50.728;4.160;2023-09-19T06:01:41;11.32;;;2.50;;
57635;SDS011;43465;50.728;4.160;2023-09-19T06:04:09;9.50;;;2.33;;
57635;SDS011;43465;50.728;4.160;2023-09-19T06:06:35;11.90;;;2.67;;
57635;SDS011;43465;50.728;4.160;2023-09-19T06:09:04;15.90;;;2.90;;
57635;SDS011;43465;50.728;4.160;2023-09-19T06:11:34;12.32;;;2.58;;
57635;SDS011;43465;50.728;4.160;2023-09-19T06:14:00;9.32;;;2.60;;
57635;SDS011;43465;50.728;4.160;2023-09-19T06:16:29;16.50;;;2.63;;
57635;SDS011;43465;50.728;4.160;2023-09-19T06:18:58;11.82;;;2.58;;
57635;SDS011;43465;50.728;4.160;2023-09-19T06:21:27;10.23;;;2.50;;
57635;SDS011;43465;50.728;4.160;2023-09-19T06:23:53;12.85;;;2.65;;
57635;SDS011;43465;50.728;4.160;2023-09-19T06:26:19;12.45;;;2.45;;
57635;SDS011;43465;50.728;4.160;2023-09-19T06:28:45;18.13;;;3.05;;
57635;SDS011;43465;50.728;4.160;2023-09-19T06:31:10;15.38;;;2.28;;
57635;SDS011;43465;50.728;4.160;2023-09-19T06:33:37;12.90;;;2.53;;
57635;SDS011;43465;50.728;4.160;2023-09-19T06:36:04;16.60;;;2.80;;
57635;SDS011;43465;50.728;4.160;2023-09-19T06:38:30;17.10;;;3.13;;
57635;SDS011;43465;50.728;4.160;2023-09-19T06:40:58;20.00;;;3.30;;
57635;SDS011;43465;50.728;4.160;2023-09-19T06:43:24;17.63;;;3.60;;
57635;SDS011;43465;50.728;4.160;2023-09-19T06:45:49;15.77;;;2.80;;
57635;SDS011;43465;50.728;4.160;2023-09-19T06:48:19;9.10;;;2.55;;
57635;SDS011;43465;50.728;4.160;2023-09-19T06:50:46;20.73;;;2.90;;
57635;SDS011;43465;50.728;4.160;2023-09-19T06:53:13;17.08;;;3.08;;
57635;SDS011;43465;50.728;4.160;2023-09-19T06:55:39;12.70;;;2.72;;
57635;SDS011;43465;50.728;4.160;2023-09-19T06:58:05;17.10;;;3.00;;
57635;SDS011;43465;50.728;4.160;2023-09-19T07:00:31;10.40;;;2.40;;
57635;SDS011;43465;50.728;4.160;2023-09-19T07:03:01;8.98;;;2.65;;
57635;SDS011;43465;50.728;4.160;2023-09-19T07:05:30;13.93;;;2.63;;
57635;SDS011;43465;50.728;4.160;2023-09-19T07:08:01;11.95;;;2.58;;
57635;SDS011;43465;50.728;4.160;2023-09-19T07:10:27;13.32;;;2.72;;
57635;SDS011;43465;50.728;4.160;2023-09-19T07:13:02;13.38;;;2.70;;
57635;SDS011;43465;50.728;4.160;2023-09-19T07:15:34;9.32;;;2.67;;
57635;SDS011;43465;50.728;4.160;2023-09-19T07:18:20;12.23;;;2.47;;
57635;SDS011;43465;50.728;4.160;2023-09-19T07:20:46;12.65;;;2.80;;
57635;SDS011;43465;50.728;4.160;2023-09-19T07:23:15;11.45;;;2.78;;
57635;SDS011;43465;50.728;4.160;2023-09-19T07:25:43;13.00;;;2.92;;
57635;SDS011;43465;50.728;4.160;2023-09-19T07:28:09;15.43;;;2.97;;
57635;SDS011;43465;50.728;4.160;2023-09-19T07:30:38;12.27;;;2.80;;
57635;SDS011;43465;50.728;4.160;2023-09-19T07:33:04;12.02;;;3.00;;
57635;SDS011;43465;50.728;4.160;2023-09-19T07:35:31;11.80;;;2.95;;
57635;SDS011;43465;50.728;4.160;2023-09-19T07:37:57;13.70;;;3.38;;
57635;SDS011;43465;50.728;4.160;2023-09-19T07:40:23;15.05;;;2.97;;
57635;SDS011;43465;50.728;4.160;2023-09-19T07:42:52;12.10;;;2.80;;
57635;SDS011;43465;50.728;4.160;2023-09-19T07:45:18;11.30;;;2.50;;
57635;SDS011;43465;50.728;4.160;2023-09-19T07:47:45;16.70;;;2.85;;
57635;SDS011;43465;50.728;4.160;2023-09-19T07:50:12;13.75;;;3.10;;
57635;SDS011;43465;50.728;4.160;2023-09-19T07:52:38;14.85;;;3.17;;
57635;SDS011;43465;50.728;4.160;2023-09-19T07:55:07;14.25;;;2.83;;
57635;SDS011;43465;50.728;4.160;2023-09-19T07:57:34;10.80;;;2.60;;
57635;SDS011;43465;50.728;4.160;2023-09-19T08:00:01;14.45;;;2.95;;
57635;SDS011;43465;50.728;4.160;2023-09-19T08:02:29;14.00;;;2.78;;
57635;SDS011;43465;50.728;4.160;2023-09-19T08:04:58;9.85;;;2.83;;
57635;SDS011;43465;50.728;4.160;2023-09-19T08:07:25;15.23;;;2.65;;
57635;SDS011;43465;50.728;4.160;2023-09-19T08:09:51;11.70;;;2.58;;
57635;SDS011;43465;50.728;4.160;2023-09-19T08:12:16;13.55;;;3.15;;
57635;SDS011;43465;50.728;4.160;2023-09-19T08:14:42;18.15;;;2.90;;
57635;SDS011;43465;50.728;4.160;2023-09-19T08:17:08;15.32;;;2.55;;
57635;SDS011;43465;50.728;4.160;2023-09-19T08:19:34;12.05;;;2.58;;
57635;SDS011;43465;50.728;4.160;2023-09-19T08:22:05;13.05;;;2.65;;
57635;SDS011;43465;50.728;4.160;2023-09-19T08:24:31;14.57;;;2.72;;
57635;SDS011;43465;50.728;4.160;2023-09-19T08:26:58;12.88;;;2.70;;
57635;SDS011;43465;50.728;4.160;2023-09-19T08:29:24;13.38;;;3.13;;
57635;SDS011;43465;50.728;4.160;2023-09-19T08:31:59;11.93;;;2.72;;
57635;SDS011;43465;50.728;4.160;2023-09-19T08:34:25;11.43;;;2.70;;
57635;SDS011;43465;50.728;4.160;2023-09-19T08:36:51;19.70;;;3.13;;
57635;SDS011;43465;50.728;4.160;2023-09-19T08:39:23;12.57;;;2.17;;
57635;SDS011;43465;50.728;4.160;2023-09-19T08:41:49;13.00;;;2.50;;
57635;SDS011;43465;50.728;4.160;2023-09-19T08:44:21;9.02;;;2.03;;
57635;SDS011;43465;50.728;4.160;2023-09-19T08:46:47;9.77;;;2.80;;
57635;SDS011;43465;50.728;4.160;2023-09-19T08:49:33;7.28;;;2.25;;
57635;SDS011;43465;50.728;4.160;2023-09-19T08:52:18;9.57;;;2.47;;
57635;SDS011;43465;50.728;4.160;2023-09-19T08:54:48;12.65;;;2.55;;
57635;SDS011;43465;50.728;4.160;2023-09-19T08:57:20;9.43;;;2.80;;
57635;SDS011;43465;50.728;4.160;2023-09-19T08:59:47;10.30;;;2.72;;
57635;SDS011;43465;50.728;4.160;2023-09-19T09:02:15;12.30;;;2.63;;
57635;SDS011;43465;50.728;4.160;2023-09-19T09:04:41;14.55;;;2.80;;
57635;SDS011;43465;50.728;4.160;2023-09-19T09:07:12;8.57;;;2.45;;
57635;SDS011;43465;50.728;4.160;2023-09-19T09:09:38;13.80;;;2.55;;
57635;SDS011;43465;50.728;4.160;2023-09-19T09:12:08;5.55;;;1.70;;
57635;SDS011;43465;50.728;4.160;2023-09-19T09:14:39;9.07;;;2.17;;
57635;SDS011;43465;50.728;4.160;2023-09-19T09:17:05;13.85;;;2.55;;
57635;SDS011;43465;50.728;4.160;2023-09-19T09:19:32;7.68;;;1.73;;
57635;SDS011;43465;50.728;4.160;2023-09-19T09:22:10;12.10;;;2.40;;
57635;SDS011;43465;50.728;4.160;2023-09-19T09:24:36;11.20;;;2.45;;
57635;SDS011;43465;50.728;4.160;2023-09-19T09:27:15;10.63;;;2.22;;
57635;SDS011;43465;50.728;4.160;2023-09-19T09:29:44;9.20;;;2.45;;
57635;SDS011;43465;50.728;4.160;2023-09-19T09:32:18;9.30;;;2.35;;
57635;SDS011;43465;50.728;4.160;2023-09-19T09:34:45;12.25;;;2.50;;
57635;SDS011;43465;50.728;4.160;2023-09-19T09:37:15;10.50;;;2.03;;
57635;SDS011;43465;50.728;4.160;2023-09-19T09:39:48;6.88;;;2.00;;
57635;SDS011;43465;50.728;4.160;2023-09-19T09:42:28;11.48;;;1.95;;
57635;SDS011;43465;50.728;4.160;2023-09-19T09:45:19;6.72;;;2.00;;
57635;SDS011;43465;50.728;4.160;2023-09-19T09:47:57;11.30;;;1.80;;
57635;SDS011;43465;50.728;4.160;2023-09-19T09:50:33;11.90;;;2.10;;
57635;SDS011;43465;50.728;4.160;2023-09-19T09:53:22;6.72;;;1.63;;
57635;SDS011;43465;50.728;4.160;2023-09-19T09:58:24;7.47;;;1.95;;
57635;SDS011;43465;50.728;4.160;2023-09-19T10:00:54;6.32;;;1.77;;
57635;SDS011;43465;50.728;4.160;2023-09-19T10:03:23;11.27;;;2.10;;
57635;SDS011;43465;50.728;4.160;2023-09-19T10:06:05;8.73;;;1.47;;
57635;SDS011;43465;50.728;4.160;2023-09-19T10:12:05;10.10;;;1.90;;
57635;SDS011;43465;50.728;4.160;2023-09-19T10:14:34;7.28;;;1.90;;
57635;SDS011;43465;50.728;4.160;2023-09-19T10:17:04;4.55;;;1.60;;
57635;SDS011;43465;50.728;4.160;2023-09-19T10:19:37;6.75;;;1.73;;
57635;SDS011;43465;50.728;4.160;2023-09-19T10:22:43;6.20;;;1.83;;
57635;SDS011;43465;50.728;4.160;2023-09-19T10:25:22;10.73;;;2.38;;
57635;SDS011;43465;50.728;4.160;2023-09-19T10:27:51;8.45;;;1.70;;
57635;SDS011;43465;50.728;4.160;2023-09-19T10:30:20;5.72;;;1.83;;
57635;SDS011;43465;50.728;4.160;2023-09-19T10:32:47;10.50;;;2.15;;
57635;SDS011;43465;50.728;4.160;2023-09-19T10:35:21;8.07;;;1.88;;
57635;SDS011;43465;50.728;4.160;2023-09-19T10:37:49;5.78;;;1.48;;
57635;SDS011;43465;50.728;4.160;2023-09-19T10:40:16;4.70;;;1.48;;
57635;SDS011;43465;50.728;4.160;2023-09-19T10:42:45;6.15;;;1.52;;
57635;SDS011;43465;50.728;4.160;2023-09-19T10:45:13;4.55;;;1.60;;
57635;SDS011;43465;50.728;4.160;2023-09-19T10:47:42;7.40;;;1.60;;
57635;SDS011;43465;50.728;4.160;2023-09-19T10:50:08;5.70;;;1.33;;
57635;SDS011;43465;50.728;4.160;2023-09-19T10:52:42;7.25;;;1.40;;
57635;SDS011;43465;50.728;4.160;2023-09-19T10:55:08;6.97;;;1.50;;
57635;SDS011;43465;50.728;4.160;2023-09-19T10:57:44;4.50;;;1.35;;
57635;SDS011;43465;50.728;4.160;2023-09-19T11:00:11;6.03;;;1.80;;
57635;SDS011;43465;50.728;4.160;2023-09-19T11:06:01;7.30;;;1.48;;
57635;SDS011;43465;50.728;4.160;2023-09-19T11:08:30;9.07;;;1.95;;
57635;SDS011;43465;50.728;4.160;2023-09-19T11:30:34;5.32;;;1.33;;
57635;SDS011;43465;50.728;4.160;2023-09-19T11:49:17;5.70;;;1.38;;
57635;SDS011;43465;50.728;4.160;2023-09-19T11:51:46;7.43;;;1.45;;
57635;SDS011;43465;50.728;4.160;2023-09-19T11:54:16;5.95;;;1.55;;
57635;SDS011;43465;50.728;4.160;2023-09-19T11:56:53;3.47;;;1.13;;
57635;SDS011;43465;50.728;4.160;2023-09-19T11:59:20;4.32;;;1.35;;
57635;SDS011;43465;50.728;4.160;2023-09-19T12:01:53;6.18;;;1.27;;
57635;SDS011;43465;50.728;4.160;2023-09-19T12:04:38;6.80;;;1.33;;
57635;SDS011;43465;50.728;4.160;2023-09-19T12:07:11;6.15;;;1.23;;
57635;SDS011;43465;50.728;4.160;2023-09-19T12:09:41;11.18;;;1.50;;
57635;SDS011;43465;50.728;4.160;2023-09-19T12:12:19;9.27;;;1.52;;
57635;SDS011;43465;50.728;4.160;2023-09-19T12:14:48;11.95;;;1.60;;
57635;SDS011;43465;50.728;4.160;2023-09-19T12:17:15;7.90;;;1.58;;
57635;SDS011;43465;50.728;4.160;2023-09-19T12:19:51;4.03;;;1.20;;
57635;SDS011;43465;50.728;4.160;2023-09-19T12:22:17;3.40;;;1.30;;
57635;SDS011;43465;50.728;4.160;2023-09-19T12:24:44;10.32;;;1.63;;
57635;SDS011;43465;50.728;4.160;2023-09-19T12:27:10;8.77;;;1.52;;
57635;SDS011;43465;50.728;4.160;2023-09-19T12:29:47;13.93;;;1.70;;
57635;SDS011;43465;50.728;4.160;2023-09-19T12:32:34;4.90;;;1.40;;
57635;SDS011;43465;50.728;4.160;2023-09-19T12:35:00;6.47;;;1.40;;
57635;SDS011;43465;50.728;4.160;2023-09-19T12:37:32;5.22;;;1.48;;
57635;SDS011;43465;50.728;4.160;2023-09-19T12:40:07;7.55;;;1.52;;
57635;SDS011;43465;50.728;4.160;2023-09-19T12:42:42;7.70;;;1.50;;
57635;SDS011;43465;50.728;4.160;2023-09-19T12:45:11;6.82;;;1.50;;
57635;SDS011;43465;50.728;4.160;2023-09-19T12:47:40;8.60;;;1.40;;
57635;SDS011;43465;50.728;4.160;2023-09-19T12:50:25;5.15;;;1.42;;
57635;SDS011;43465;50.728;4.160;2023-09-19T12:52:54;9.07;;;1.25;;
57635;SDS011;43465;50.728;4.160;2023-09-19T12:58:14;8.48;;;1.40;;
57635;SDS011;43465;50.728;4.160;2023-09-19T13:00:44;14.52;;;1.48;;
57635;SDS011;43465;50.728;4.160;2023-09-19T13:05:57;9.75;;;1.52;;
57635;SDS011;43465;50.728;4.160;2023-09-19T13:08:27;14.70;;;1.40;;
57635;SDS011;43465;50.728;4.160;2023-09-19T13:11:13;9.50;;;1.38;;
57635;SDS011;43465;50.728;4.160;2023-09-19T13:14:13;8.27;;;1.83;;
57635;SDS011;43465;50.728;4.160;2023-09-19T13:19:35;6.18;;;1.30;;
57635;SDS011;43465;50.728;4.160;2023-09-19T13:22:05;18.20;;;2.10;;
57635;SDS011;43465;50.728;4.160;2023-09-19T13:25:19;7.25;;;1.30;;
57635;SDS011;43465;50.728;4.160;2023-09-19T13:27:47;3.13;;;1.38;;
57635;SDS011;43465;50.728;4.160;2023-09-19T13:32:45;11.38;;;1.60;;
57635;SDS011;43465;50.728;4.160;2023-09-19T13:35:12;4.45;;;1.30;;
57635;SDS011;43465;50.728;4.160;2023-09-19T13:37:39;7.70;;;1.60;;
57635;SDS011;43465;50.728;4.160;2023-09-19T13:40:08;9.88;;;1.50;;
57635;SDS011;43465;50.728;4.160;2023-09-19T13:42:38;5.30;;;1.20;;
57635;SDS011;43465;50.728;4.160;2023-09-19T13:45:05;7.75;;;1.70;;
57635;SDS011;43465;50.728;4.160;2023-09-19T13:47:32;7.00;;;1.90;;
57635;SDS011;43465;50.728;4.160;2023-09-19T13:49:58;5.05;;;1.50;;
57635;SDS011;43465;50.728;4.160;2023-09-19T13:52:25;4.53;;;1.30;;
57635;SDS011;43465;50.728;4.160;2023-09-19T13:54:53;7.47;;;1.67;;
57635;SDS011;43465;50.728;4.160;2023-09-19T13:57:21;5.40;;;1.45;;
57635;SDS011;43465;50.728;4.160;2023-09-19T13:59:47;5.18;;;1.20;;
57635;SDS011;43465;50.728;4.160;2023-09-19T14:02:13;4.88;;;1.58;;
57635;SDS011;43465;50.728;4.160;2023-09-19T14:04:39;4.65;;;1.40;;
57635;SDS011;43465;50.728;4.160;2023-09-19T14:07:05;5.10;;;1.60;;
57635;SDS011;43465;50.728;4.160;2023-09-19T14:09:32;5.25;;;1.45;;
57635;SDS011;43465;50.728;4.160;2023-09-19T14:11:58;6.15;;;1.42;;
57635;SDS011;43465;50.728;4.160;2023-09-19T14:14:24;11.13;;;1.58;;
57635;SDS011;43465;50.728;4.160;2023-09-19T14:16:50;7.20;;;1.40;;
57635;SDS011;43465;50.728;4.160;2023-09-19T14:19:17;6.47;;;1.80;;
57635;SDS011;43465;50.728;4.160;2023-09-19T14:21:43;4.72;;;1.40;;
57635;SDS011;43465;50.728;4.160;2023-09-19T14:24:09;11.10;;;1.67;;
57635;SDS011;43465;50.728;4.160;2023-09-19T14:26:36;5.82;;;1.60;;
57635;SDS011;43465;50.728;4.160;2023-09-19T14:29:02;5.53;;;1.92;;
57635;SDS011;43465;50.728;4.160;2023-09-19T14:31:28;5.80;;;1.58;;
57635;SDS011;43465;50.728;4.160;2023-09-19T14:33:57;5.20;;;1.38;;
57635;SDS011;43465;50.728;4.160;2023-09-19T14:36:24;5.47;;;1.63;;
57635;SDS011;43465;50.728;4.160;2023-09-19T14:38:53;4.80;;;1.33;;
57635;SDS011;43465;50.728;4.160;2023-09-19T14:41:20;6.32;;;1.83;;
57635;SDS011;43465;50.728;4.160;2023-09-19T14:43:46;5.90;;;1.42;;
57635;SDS011;43465;50.728;4.160;2023-09-19T14:46:12;5.40;;;1.70;;
57635;SDS011;43465;50.728;4.160;2023-09-19T14:48:39;5.40;;;1.83;;
57635;SDS011;43465;50.728;4.160;2023-09-19T14:51:05;7.45;;;2.00;;
57635;SDS011;43465;50.728;4.160;2023-09-19T14:53:34;9.27;;;1.80;;
57635;SDS011;43465;50.728;4.160;2023-09-19T14:56:00;10.10;;;2.05;;
57635;SDS011;43465;50.728;4.160;2023-09-19T14:58:32;4.25;;;1.63;;
57635;SDS011;43465;50.728;4.160;2023-09-19T15:01:16;5.85;;;1.65;;
57635;SDS011;43465;50.728;4.160;2023-09-19T15:03:42;5.13;;;1.45;;
57635;SDS011;43465;50.728;4.160;2023-09-19T15:06:09;9.20;;;2.15;;
57635;SDS011;43465;50.728;4.160;2023-09-19T15:08:37;5.15;;;1.90;;
57635;SDS011;43465;50.728;4.160;2023-09-19T15:11:07;6.38;;;1.77;;
57635;SDS011;43465;50.728;4.160;2023-09-19T15:13:33;6.38;;;1.70;;
57635;SDS011;43465;50.728;4.160;2023-09-19T15:16:01;5.70;;;1.27;;
57635;SDS011;43465;50.728;4.160;2023-09-19T15:18:28;6.90;;;1.67;;
57635;SDS011;43465;50.728;4.160;2023-09-19T15:20:55;3.55;;;1.25;;
57635;SDS011;43465;50.728;4.160;2023-09-19T15:23:21;6.25;;;1.60;;
57635;SDS011;43465;50.728;4.160;2023-09-19T15:25:48;5.00;;;1.55;;
57635;SDS011;43465;50.728;4.160;2023-09-19T15:28:14;6.30;;;1.65;;
57635;SDS011;43465;50.728;4.160;2023-09-19T15:30:40;3.42;;;1.55;;
57635;SDS011;43465;50.728;4.160;2023-09-19T15:33:05;8.77;;;1.73;;
57635;SDS011;43465;50.728;4.160;2023-09-19T15:35:31;5.53;;;1.55;;
57635;SDS011;43465;50.728;4.160;2023-09-19T15:37:57;5.35;;;1.48;;
57635;SDS011;43465;50.728;4.160;2023-09-19T15:40:25;4.25;;;1.48;;
57635;SDS011;43465;50.728;4.160;2023-09-19T15:42:52;5.55;;;1.40;;
57635;SDS011;43465;50.728;4.160;2023-09-19T15:45:19;6.15;;;1.90;;
57635;SDS011;43465;50.728;4.160;2023-09-19T15:47:45;4.18;;;1.70;;
57635;SDS011;43465;50.728;4.160;2023-09-19T15:50:10;7.85;;;1.73;;
57635;SDS011;43465;50.728;4.160;2023-09-19T15:52:39;8.70;;;1.67;;
57635;SDS011;43465;50.728;4.160;2023-09-19T15:55:05;10.02;;;2.20;;
57635;SDS011;43465;50.728;4.160;2023-09-19T15:57:32;4.53;;;1.70;;
57635;SDS011;43465;50.728;4.160;2023-09-19T15:59:59;5.38;;;1.98;;
57635;SDS011;43465;50.728;4.160;2023-09-19T16:02:25;5.05;;;2.00;;